La Motte, Iowa
Current Conditions -  °F | °C
As of 5:53 AM on Sunday 25 Jan 2015 (Local Time) from KDBQ Reporting Station
Haze Haze  
Wind Chill: 18°   Ceiling: 500
Heat Index: 31°   Visibility: 6mi
Dew Point: 28°   Wind: 21mph
Humidity: 89%   Direction: 60°ENE
Pressure: 29.68"   Gusts: 28mph
Location:  42.3°N, 90.62°W
Report Text: KDBQ 251153Z 06018G24KT 6SM BR OVC005 M01/M02 A2968 RMK AO2 SLP059 T10061022 10017 21006 53022 $
Loading
Personal Weather Stations






























Interactive Weather Map New forecast layout! Learn more

10-Day Weather Forecast

Advertisements
Track Severe Weather on mobile